EGMD

Lydd Airport

Lydd, Ashford, United Kingdom
METAR EGMD 161420Z 30008KT CAVOK 04/M00 Q1018
Observed Flight Rules
Dec-16 @ 14:20 UTC (32 minutes ago) Visual Flight Rules
Wind Visibility Clouds
300° at 8 knots 10,000+ meters
  • Clear skies
Temperatures Readings
Current 4°C / 39°F
Dewpoint 0°C / 32°F
Humidity 75%
Altimeter 30.06" Hg
Pressure 1018 hPa
Elevation 3
METAR EGMD 161420Z 30008KT CAVOK 04/M00 Q1018
Observed Flight Rules
Dec-16 @ 14:20 UTC
(32 minutes ago)
VFR
Wind Visibility
300° at 8 knots 10,000+ meters
Clouds
  • Clear skies
Temperature Dewpoint
4°C / 39°F 0°C / 32°F
Humidity Altimeter Pressure
75% 30.06" Hg 1018 hPa